Terminal Aerodrome Forecast
Issued by NWS

Home | Current Version | Previous Version | Text Only | Print | Product List | Glossary Off
Versions: 1 2 3 4 5 6 7 8 9 10 11 12 13 14 15 16 17 18 19 20 21

359
FTUS43 KICT 181122
TAFRSL
TAF
KRSL 181122Z 1812/1912 14014KT 3SM BR BKN002 OVC015
     FM181500 18008KT P6SM BKN020
     FM181600 19008KT P6SM BKN050
     FM181800 20009KT P6SM SCT080
     FM182300 15007KT P6SM FEW150=

USA.gov is the U.S. government's official web portal to all federal, state and local government web resources and services.